createdAt,value
2023-05-14T00:00:37.262Z,66.30
2023-05-14T00:03:08.038Z,67.40
2023-05-14T00:05:40.307Z,65.60
2023-05-14T00:08:10.689Z,66.10
2023-05-14T00:10:40.866Z,66.60
2023-05-14T00:13:11.375Z,67.60
2023-05-14T00:15:41.773Z,68.10
2023-05-14T00:18:12.875Z,68.20
2023-05-14T00:20:45.057Z,69.30
2023-05-14T00:23:15.308Z,69.90
2023-05-14T00:25:45.498Z,69.70
2023-05-14T00:28:15.910Z,69.70
2023-05-14T00:30:47.814Z,71.40
2023-05-14T00:33:18.396Z,70.30
2023-05-14T00:35:51.166Z,71.20
2023-05-14T00:38:21.763Z,70.90
2023-05-14T00:40:52.520Z,71.10
2023-05-14T00:43:23.556Z,71.80
2023-05-14T00:45:54.986Z,72.50
2023-05-14T00:48:25.659Z,72.30
2023-05-14T00:50:57.677Z,71.90
2023-05-14T00:53:28.125Z,72.40
2023-05-14T00:55:58.641Z,72.70
2023-05-14T00:58:30.883Z,73.10
2023-05-14T01:01:01.239Z,73.50
2023-05-14T01:03:32.781Z,73.60
2023-05-14T01:06:12.166Z,74.30
2023-05-14T01:08:53.424Z,74.10
2023-05-14T01:11:28.443Z,74.70
2023-05-14T01:14:06.075Z,74.80
2023-05-14T01:16:38.188Z,74.80
2023-05-14T01:19:12.345Z,75.40
2023-05-14T01:21:46.944Z,75.00
2023-05-14T01:24:17.896Z,75.40
2023-05-14T01:26:48.246Z,76.90
2023-05-14T01:29:24.300Z,76.60
2023-05-14T01:31:58.407Z,76.20
2023-05-14T01:34:30.850Z,77.70
2023-05-14T01:37:06.250Z,77.30
2023-05-14T01:39:38.548Z,77.20
2023-05-14T01:42:10.476Z,77.10
2023-05-14T01:44:41.111Z,77.40
2023-05-14T01:47:11.298Z,77.60
2023-05-14T01:49:41.674Z,77.90
2023-05-14T01:52:13.985Z,78.80
2023-05-14T01:54:44.415Z,79.20
2023-05-14T01:57:15.124Z,79.70
2023-05-14T01:59:45.358Z,79.70
2023-05-14T02:02:15.569Z,80.70
2023-05-14T02:04:45.798Z,81.00
2023-05-14T02:07:17.597Z,81.60
2023-05-14T02:09:48.302Z,82.20
2023-05-14T02:12:18.512Z,82.80
2023-05-14T02:14:48.852Z,84.60
2023-05-14T02:17:19.009Z,85.90
2023-05-14T02:19:49.273Z,86.10
2023-05-14T02:22:21.156Z,87.00
2023-05-14T02:24:52.101Z,86.10
2023-05-14T02:27:22.533Z,85.50
2023-05-14T02:29:52.731Z,87.00
2023-05-14T02:32:22.986Z,87.30
2023-05-14T02:34:53.435Z,87.00
2023-05-14T02:37:25.424Z,87.40
2023-05-14T02:39:55.650Z,87.60
2023-05-14T02:42:26.345Z,88.90
2023-05-14T02:44:56.522Z,89.50
2023-05-14T02:47:27.032Z,90.10
2023-05-14T02:49:57.246Z,90.00
2023-05-14T02:52:29.172Z,90.50
2023-05-14T02:54:59.353Z,90.50
2023-05-14T02:57:29.653Z,90.80
2023-05-14T02:59:59.856Z,90.90
2023-05-14T03:02:30.614Z,91.40
2023-05-14T03:05:01.484Z,91.60
2023-05-14T03:07:33.288Z,91.90
2023-05-14T03:10:03.627Z,92.00
2023-05-14T03:12:33.825Z,92.20
2023-05-14T03:15:04.110Z,92.20
2023-05-14T03:17:34.595Z,92.10
2023-05-14T03:20:05.183Z,91.70
2023-05-14T03:22:37.348Z,92.00
2023-05-14T03:25:08.247Z,91.90
2023-05-14T03:27:39.699Z,91.50
2023-05-14T03:30:11.576Z,91.60
2023-05-14T03:32:41.982Z,91.40
2023-05-14T03:35:12.618Z,91.60
2023-05-14T03:37:44.672Z,91.40
2023-05-14T03:40:15.465Z,91.50
2023-05-14T03:42:45.813Z,91.10
2023-05-14T03:45:16.037Z,91.10
2023-05-14T03:47:46.267Z,91.30
2023-05-14T03:50:16.809Z,91.50
2023-05-14T03:52:48.600Z,91.30
2023-05-14T03:55:19.481Z,91.50
2023-05-14T03:57:50.334Z,92.10
2023-05-14T04:00:21.051Z,91.70
2023-05-14T04:02:51.774Z,92.20
2023-05-14T04:05:22.220Z,92.50
2023-05-14T04:07:54.109Z,92.60
2023-05-14T04:10:24.606Z,92.70
2023-05-14T04:12:55.771Z,93.30
2023-05-14T04:15:26.253Z,94.10
2023-05-14T04:17:56.420Z,94.20
2023-05-14T04:20:26.985Z,94.60
2023-05-14T04:22:58.939Z,95.20
2023-05-14T04:25:29.078Z,95.90
2023-05-14T04:27:59.279Z,96.30
2023-05-14T04:30:29.436Z,96.90
2023-05-14T04:32:59.628Z,98.40
2023-05-14T04:35:30.000Z,98.60
2023-05-14T04:38:02.086Z,98.90
2023-05-14T04:40:33.078Z,99.50
2023-05-14T04:43:03.765Z,99.80
2023-05-14T04:45:34.965Z,99.90
2023-05-14T04:48:05.833Z,99.90
2023-05-14T04:50:36.321Z,99.90
2023-05-14T04:53:08.120Z,99.90
2023-05-14T04:55:39.260Z,99.90
2023-05-14T04:58:09.419Z,99.90
2023-05-14T05:00:48.541Z,99.90
2023-05-14T05:03:19.037Z,99.90
2023-05-14T05:05:49.449Z,99.90
2023-05-14T05:08:21.282Z,99.90
2023-05-14T05:10:51.529Z,99.90
2023-05-14T05:13:21.694Z,99.90
2023-05-14T05:15:52.035Z,99.90
2023-05-14T05:18:22.743Z,99.90
2023-05-14T05:20:52.998Z,99.90
2023-05-14T05:23:24.800Z,99.90
2023-05-14T05:25:55.073Z,99.90
2023-05-14T05:28:25.227Z,99.90
2023-05-14T05:30:55.633Z,99.90
2023-05-14T05:33:26.152Z,99.90
2023-05-14T05:35:56.717Z,99.90
2023-05-14T05:38:29.055Z,99.90
2023-05-14T05:40:59.258Z,99.90
2023-05-14T05:43:29.578Z,99.90
2023-05-14T05:45:59.943Z,99.90
2023-05-14T05:48:30.416Z,99.90
2023-05-14T05:51:00.907Z,99.90
2023-05-14T05:53:32.727Z,99.90
2023-05-14T05:56:03.668Z,99.90
2023-05-14T05:58:34.180Z,99.90
2023-05-14T06:01:04.702Z,99.90
2023-05-14T06:03:34.958Z,99.90
2023-05-14T06:06:05.195Z,99.90
2023-05-14T06:08:36.975Z,99.90
2023-05-14T06:11:07.686Z,99.90
2023-05-14T06:13:37.911Z,99.90
2023-05-14T06:16:08.496Z,99.90
2023-05-14T06:18:38.807Z,99.90
2023-05-14T06:21:09.401Z,99.90
2023-05-14T06:23:41.888Z,99.90
2023-05-14T06:26:12.398Z,99.90
2023-05-14T06:28:42.527Z,99.90
2023-05-14T06:31:12.852Z,99.90
2023-05-14T06:33:43.097Z,99.90
2023-05-14T06:36:13.761Z,99.90
2023-05-14T06:38:45.857Z,99.90
2023-05-14T06:41:16.045Z,99.90
2023-05-14T06:43:46.111Z,99.90
2023-05-14T06:46:16.829Z,99.90
2023-05-14T06:48:47.211Z,99.90
2023-05-14T06:51:17.616Z,99.90
2023-05-14T06:53:49.592Z,99.90
2023-05-14T06:56:19.994Z,99.90
2023-05-14T06:58:50.218Z,99.90
2023-05-14T07:01:20.813Z,99.90
2023-05-14T07:03:51.136Z,99.90
2023-05-14T07:06:21.500Z,99.90
2023-05-14T07:08:53.973Z,99.90
2023-05-14T07:11:24.322Z,99.90
2023-05-14T07:13:54.540Z,99.90
2023-05-14T07:16:25.309Z,99.90
2023-05-14T07:18:55.664Z,99.90
2023-05-14T07:21:26.022Z,99.90
2023-05-14T07:23:58.081Z,99.90
2023-05-14T07:26:28.307Z,99.90
2023-05-14T07:28:59.075Z,99.90
2023-05-14T07:31:29.407Z,99.90
2023-05-14T07:34:00.107Z,99.90
2023-05-14T07:36:30.516Z,99.90
2023-05-14T07:39:02.495Z,99.90
2023-05-14T07:41:32.758Z,99.90
2023-05-14T07:44:03.244Z,99.90
2023-05-14T07:46:33.657Z,99.90
2023-05-14T07:49:03.799Z,99.90
2023-05-14T07:51:34.214Z,99.90
2023-05-14T07:54:06.282Z,99.90
2023-05-14T07:56:36.880Z,99.90
2023-05-14T07:59:07.885Z,99.90
2023-05-14T08:01:40.720Z,99.90
2023-05-14T08:04:12.330Z,99.90
2023-05-14T08:06:42.979Z,99.90
2023-05-14T08:09:14.742Z,99.90
2023-05-14T08:11:44.935Z,99.90
2023-05-14T08:14:15.344Z,99.90
2023-05-14T08:16:45.920Z,99.90
2023-05-14T08:19:16.417Z,99.90
2023-05-14T08:21:47.049Z,99.90
2023-05-14T08:24:18.799Z,99.90
2023-05-14T08:26:49.128Z,99.90
2023-05-14T08:29:19.361Z,99.90
2023-05-14T08:31:49.742Z,99.90
2023-05-14T08:34:20.203Z,99.90
2023-05-14T08:36:50.410Z,99.90
2023-05-14T08:39:22.261Z,99.90
2023-05-14T08:41:52.889Z,99.90
2023-05-14T08:44:27.242Z,99.90
2023-05-14T08:46:58.333Z,99.90
2023-05-14T08:49:42.415Z,99.90
2023-05-14T08:52:13.515Z,99.90
2023-05-14T08:54:45.677Z,99.90
2023-05-14T08:57:17.175Z,99.90
2023-05-14T08:59:47.915Z,99.90
2023-05-14T09:02:18.890Z,99.90
2023-05-14T09:04:49.855Z,99.90
2023-05-14T09:07:20.187Z,99.90
2023-05-14T09:09:52.651Z,99.90
2023-05-14T09:12:23.912Z,99.90
2023-05-14T09:14:54.359Z,99.90
2023-05-14T09:17:27.825Z,99.90
2023-05-14T09:19:58.245Z,99.90
2023-05-14T09:22:32.558Z,99.90
2023-05-14T09:25:08.998Z,99.90
2023-05-14T09:27:39.470Z,99.90
2023-05-14T09:30:12.193Z,99.90
2023-05-14T09:32:44.651Z,99.90
2023-05-14T09:35:19.370Z,99.90
2023-05-14T09:37:51.192Z,99.90
2023-05-14T09:40:24.684Z,99.90
2023-05-14T09:42:55.416Z,99.90
2023-05-14T09:45:25.752Z,99.90
2023-05-14T09:47:56.636Z,99.90
2023-05-14T09:50:27.112Z,99.90
2023-05-14T09:52:58.476Z,99.90
2023-05-14T09:55:31.394Z,99.90
2023-05-14T09:58:02.153Z,99.90
2023-05-14T10:00:33.801Z,99.90
2023-05-14T10:03:09.815Z,99.90
2023-05-14T10:05:42.387Z,99.90
2023-05-14T10:08:16.999Z,99.90
2023-05-14T10:10:48.899Z,99.90
2023-05-14T10:13:23.151Z,99.90
2023-05-14T10:15:58.127Z,99.90
2023-05-14T10:18:30.513Z,99.90
2023-05-14T10:21:06.350Z,99.90
2023-05-14T10:23:38.606Z,99.90
2023-05-14T10:26:11.835Z,99.90
2023-05-14T10:28:43.104Z,99.90
2023-05-14T10:31:13.629Z,99.90
2023-05-14T10:33:51.063Z,99.90
2023-05-14T10:36:22.909Z,99.90
2023-05-14T10:38:58.686Z,99.90
2023-05-14T10:41:30.461Z,99.90
2023-05-14T10:44:01.621Z,99.90
2023-05-14T10:46:32.049Z,99.90
2023-05-14T10:49:02.661Z,99.90
2023-05-14T10:51:34.112Z,99.90
2023-05-14T10:54:04.485Z,99.90
2023-05-14T10:56:36.920Z,99.90
2023-05-14T10:59:10.409Z,99.90
2023-05-14T11:01:43.583Z,99.90
2023-05-14T11:04:21.544Z,99.90
2023-05-14T11:06:53.567Z,99.90
2023-05-14T11:09:25.088Z,99.90
2023-05-14T11:11:58.075Z,99.90
2023-05-14T11:14:28.476Z,99.90
2023-05-14T11:16:59.679Z,99.90
2023-05-14T11:19:29.958Z,99.90
2023-05-14T11:22:01.850Z,99.90
2023-05-14T11:24:32.317Z,99.90
2023-05-14T11:27:04.265Z,99.90
2023-05-14T11:29:34.612Z,99.90
2023-05-14T11:32:07.429Z,99.90
2023-05-14T11:34:38.113Z,99.90
2023-05-14T11:37:08.818Z,99.90
2023-05-14T11:39:39.728Z,99.90
2023-05-14T11:42:17.368Z,99.90
2023-05-14T11:44:49.684Z,99.90
2023-05-14T11:47:21.742Z,99.90
2023-05-14T11:49:52.327Z,99.90
2023-05-14T11:52:22.568Z,99.90
2023-05-14T11:54:52.770Z,99.90
2023-05-14T11:57:25.887Z,99.90
2023-05-14T12:00:00.204Z,99.90
2023-05-14T12:02:31.241Z,99.90
2023-05-14T12:05:03.811Z,99.90
2023-05-14T12:07:33.978Z,99.90
2023-05-14T12:10:05.662Z,99.90
2023-05-14T12:12:39.919Z,99.90
2023-05-14T12:15:14.841Z,99.90
2023-05-14T12:17:45.213Z,99.90
2023-05-14T12:20:16.179Z,99.90
2023-05-14T12:22:46.424Z,99.90
2023-05-14T12:25:16.719Z,99.90
2023-05-14T12:27:49.284Z,99.90
2023-05-14T12:30:21.429Z,99.90
2023-05-14T12:32:57.843Z,99.90
2023-05-14T12:35:28.216Z,99.90
2023-05-14T12:37:58.344Z,99.90
2023-05-14T12:40:28.562Z,99.90
2023-05-14T12:43:00.927Z,99.70
2023-05-14T12:45:33.587Z,99.90
2023-05-14T12:48:03.769Z,99.90
2023-05-14T12:50:34.288Z,99.90
2023-05-14T12:53:05.276Z,99.90
2023-05-14T12:55:36.201Z,99.90
2023-05-14T12:58:08.652Z,99.30
2023-05-14T13:00:39.328Z,98.90
2023-05-14T13:03:09.565Z,97.80
2023-05-14T13:05:39.954Z,99.00
2023-05-14T13:08:12.030Z,98.80
2023-05-14T13:10:42.276Z,99.90
2023-05-14T13:13:18.549Z,98.50
2023-05-14T13:15:48.851Z,99.80
2023-05-14T13:18:20.054Z,99.90
2023-05-14T13:20:50.817Z,97.70
2023-05-14T13:23:21.006Z,97.60
2023-05-14T13:25:52.040Z,97.80
2023-05-14T13:28:24.131Z,97.40
2023-05-14T13:31:08.523Z,97.40
2023-05-14T13:33:40.385Z,97.30
2023-05-14T13:36:12.434Z,97.60
2023-05-14T13:38:42.927Z,98.00
2023-05-14T13:41:13.413Z,96.60
2023-05-14T13:43:45.197Z,96.00
2023-05-14T13:46:15.417Z,96.10
2023-05-14T13:48:45.650Z,95.90
2023-05-14T13:51:16.442Z,95.70
2023-05-14T13:53:46.807Z,95.30
2023-05-14T13:56:17.611Z,96.10
2023-05-14T13:58:49.872Z,96.80
2023-05-14T14:01:20.511Z,95.30
2023-05-14T14:03:50.746Z,94.50
2023-05-14T14:06:21.482Z,95.80
2023-05-14T14:08:51.654Z,94.00
2023-05-14T14:11:22.173Z,96.70
2023-05-14T14:13:55.055Z,95.50
2023-05-14T14:16:25.674Z,94.00
2023-05-14T14:18:56.092Z,94.30
2023-05-14T14:21:26.346Z,93.80
2023-05-14T14:23:57.191Z,93.60
2023-05-14T14:26:28.493Z,94.80
2023-05-14T14:29:00.320Z,93.80
2023-05-14T14:31:30.607Z,92.60
2023-05-14T14:34:00.975Z,92.40
2023-05-14T14:36:31.595Z,92.40
2023-05-14T14:39:01.779Z,93.20
2023-05-14T14:41:32.123Z,90.90
2023-05-14T14:44:04.232Z,91.60
2023-05-14T14:46:34.632Z,91.30
2023-05-14T14:49:04.843Z,92.30
2023-05-14T14:51:35.248Z,91.80
2023-05-14T14:54:06.737Z,92.80
2023-05-14T14:56:37.937Z,90.90
2023-05-14T14:59:09.736Z,90.70
2023-05-14T15:01:42.684Z,91.00
2023-05-14T15:04:13.044Z,91.40
2023-05-14T15:06:43.276Z,92.90
2023-05-14T15:09:13.424Z,92.70
2023-05-14T15:11:43.919Z,91.40
2023-05-14T15:14:16.034Z,91.90
2023-05-14T15:16:47.191Z,86.80
2023-05-14T15:19:19.305Z,88.70
2023-05-14T15:21:49.613Z,86.20
2023-05-14T15:24:19.860Z,86.50
2023-05-14T15:26:51.007Z,90.20
2023-05-14T15:29:24.451Z,88.90
2023-05-14T15:31:55.465Z,88.00
2023-05-14T15:34:25.875Z,82.90
2023-05-14T15:36:56.275Z,83.60
2023-05-14T15:39:27.290Z,84.00
2023-05-14T15:41:59.128Z,85.50
2023-05-14T15:44:33.104Z,84.20
2023-05-14T15:47:03.333Z,83.20
2023-05-14T15:49:33.546Z,83.20
2023-05-14T15:52:04.239Z,81.70
2023-05-14T15:54:34.440Z,81.60
2023-05-14T15:57:05.305Z,80.40
2023-05-14T15:59:37.176Z,80.30
2023-05-14T16:02:08.254Z,79.40
2023-05-14T16:04:38.954Z,81.20
2023-05-14T16:07:11.672Z,77.40
2023-05-14T16:09:42.203Z,77.30
2023-05-14T16:12:13.092Z,77.20
2023-05-14T16:14:45.886Z,73.30
2023-05-14T16:17:16.114Z,70.70
2023-05-14T16:19:48.283Z,72.40
2023-05-14T16:22:18.672Z,70.40
2023-05-14T16:24:48.930Z,72.70
2023-05-14T16:27:19.831Z,72.30
2023-05-14T16:29:51.662Z,73.10
2023-05-14T16:32:22.332Z,73.80
2023-05-14T16:34:52.829Z,73.20
2023-05-14T16:37:23.067Z,73.00
2023-05-14T16:39:53.635Z,72.80
2023-05-14T16:42:24.054Z,70.10
2023-05-14T16:44:55.829Z,66.50
2023-05-14T16:47:26.265Z,69.80
2023-05-14T16:49:56.465Z,69.50
2023-05-14T16:52:26.806Z,68.80
2023-05-14T16:55:01.877Z,68.00
2023-05-14T16:57:32.290Z,69.00
2023-05-14T17:00:21.573Z,70.10
2023-05-14T17:03:44.345Z,66.80
2023-05-14T17:06:39.964Z,64.70
2023-05-14T17:09:10.242Z,64.60
2023-05-14T17:11:40.824Z,62.70
2023-05-14T17:14:11.024Z,62.90
2023-05-14T17:16:43.001Z,66.20
2023-05-14T17:19:13.311Z,66.80
2023-05-14T17:21:43.703Z,63.10
2023-05-14T17:26:25.586Z,62.90
2023-05-14T17:28:55.961Z,64.40
2023-05-14T17:31:26.247Z,64.50
2023-05-14T17:33:56.602Z,63.80
2023-05-14T17:36:27.236Z,61.20
2023-05-14T17:43:09.941Z,59.50
2023-05-14T17:45:52.955Z,62.50
2023-05-14T17:48:24.615Z,60.00
2023-05-14T17:50:54.953Z,58.70
2023-05-14T17:53:25.182Z,59.50
2023-05-14T17:55:55.396Z,58.40
2023-05-14T17:58:25.744Z,60.00
2023-05-14T18:00:57.775Z,57.10
2023-05-14T18:03:28.431Z,57.10
2023-05-14T18:05:59.509Z,55.40
2023-05-14T18:08:30.282Z,59.10
2023-05-14T18:11:01.412Z,58.00
2023-05-14T18:13:31.601Z,55.50
2023-05-14T18:16:03.510Z,57.10
2023-05-14T18:18:34.461Z,56.60
2023-05-14T18:21:04.642Z,56.10
2023-05-14T18:23:34.967Z,56.80
2023-05-14T18:26:05.720Z,58.80
2023-05-14T18:28:36.005Z,56.80
2023-05-14T18:31:08.033Z,58.40
2023-05-14T18:33:38.305Z,59.70
2023-05-14T18:36:08.830Z,58.00
2023-05-14T18:38:39.090Z,59.50
2023-05-14T18:41:09.929Z,60.00
2023-05-14T18:43:40.459Z,59.40
2023-05-14T18:46:12.879Z,62.70
2023-05-14T18:48:43.133Z,58.70
2023-05-14T18:51:13.850Z,57.90
2023-05-14T18:53:44.315Z,61.60
2023-05-14T18:56:14.504Z,60.80
2023-05-14T18:58:44.769Z,58.80
2023-05-14T19:01:16.836Z,58.50
2023-05-14T19:03:47.264Z,59.70
2023-05-14T19:06:17.533Z,62.00
2023-05-14T19:08:48.058Z,62.20
2023-05-14T19:11:18.859Z,61.70
2023-05-14T19:13:50.263Z,57.90
2023-05-14T19:16:22.576Z,57.30
2023-05-14T19:18:53.094Z,55.80
2023-05-14T19:21:23.320Z,59.10
2023-05-14T19:23:53.839Z,59.90
2023-05-14T19:26:24.375Z,63.40
2023-05-14T19:28:59.116Z,63.10
2023-05-14T19:31:31.187Z,59.80
2023-05-14T19:34:01.878Z,61.90
2023-05-14T19:36:33.277Z,56.60
2023-05-14T19:39:03.822Z,58.20
2023-05-14T19:41:33.959Z,57.40
2023-05-14T19:44:04.284Z,59.20
2023-05-14T19:46:36.168Z,59.60
2023-05-14T19:49:06.466Z,59.20
2023-05-14T19:51:37.000Z,59.00
2023-05-14T19:54:07.463Z,60.20
2023-05-14T19:56:38.928Z,59.80
2023-05-14T19:59:09.182Z,58.40
2023-05-14T20:01:42.661Z,58.20
2023-05-14T20:04:14.671Z,56.40
2023-05-14T20:06:46.390Z,58.20
2023-05-14T20:09:16.676Z,56.20
2023-05-14T20:11:47.644Z,56.00
2023-05-14T20:14:18.025Z,57.00
2023-05-14T20:16:50.070Z,59.20
2023-05-14T20:19:21.672Z,57.70
2023-05-14T20:21:51.860Z,56.90
2023-05-14T20:24:22.484Z,58.00
2023-05-14T20:26:53.254Z,58.10
2023-05-14T20:29:23.668Z,56.10
2023-05-14T20:31:57.007Z,56.90
2023-05-14T20:34:27.741Z,56.40
2023-05-14T20:37:00.814Z,54.60
2023-05-14T20:39:31.081Z,56.80
2023-05-14T20:42:01.404Z,53.80
2023-05-14T20:44:31.982Z,55.20
2023-05-14T20:47:06.184Z,54.30
2023-05-14T20:49:36.455Z,55.30
2023-05-14T20:52:07.084Z,55.10
2023-05-14T20:54:37.821Z,54.70
2023-05-14T20:57:08.360Z,54.80
2023-05-14T20:59:38.544Z,54.60
2023-05-14T21:02:11.339Z,56.00
2023-05-14T21:04:42.120Z,56.40
2023-05-14T21:07:12.323Z,53.20
2023-05-14T21:09:42.804Z,55.50
2023-05-14T21:12:13.609Z,51.60
2023-05-14T21:14:44.182Z,50.70
2023-05-14T21:17:16.585Z,52.80
2023-05-14T21:19:47.002Z,51.30
2023-05-14T21:22:18.640Z,50.50
2023-05-14T21:24:50.800Z,50.20
2023-05-14T21:27:21.697Z,50.70
2023-05-14T21:29:51.924Z,52.10
2023-05-14T21:32:25.754Z,50.80
2023-05-14T21:34:55.996Z,50.30
2023-05-14T21:37:26.185Z,50.50
2023-05-14T21:39:56.474Z,49.10
2023-05-14T21:42:26.923Z,50.90
2023-05-14T21:44:57.069Z,49.70
2023-05-14T21:47:30.113Z,50.40
2023-05-14T21:50:00.663Z,49.70
2023-05-14T21:52:31.770Z,50.90
2023-05-14T21:55:02.112Z,49.30
2023-05-14T21:57:34.603Z,52.10
2023-05-14T22:00:08.581Z,49.80
2023-05-14T22:02:40.411Z,50.40
2023-05-14T22:05:10.970Z,50.70
2023-05-14T22:07:41.908Z,51.80
2023-05-14T22:10:13.996Z,51.10
2023-05-14T22:12:45.785Z,53.20
2023-05-14T22:15:16.428Z,50.30
2023-05-14T22:17:49.127Z,49.40
2023-05-14T22:20:19.423Z,49.90
2023-05-14T22:22:49.637Z,50.40
2023-05-14T22:25:21.133Z,49.40
2023-05-14T22:27:51.679Z,50.20
2023-05-14T22:30:21.930Z,49.80
2023-05-14T22:32:54.339Z,50.10
2023-05-14T22:35:26.294Z,49.80
2023-05-14T22:37:56.882Z,51.50
2023-05-14T22:40:30.553Z,49.70
2023-05-14T22:43:01.437Z,49.40
2023-05-14T22:45:32.681Z,51.70
2023-05-14T22:48:05.915Z,49.80
2023-05-14T22:50:37.238Z,50.00
2023-05-14T22:53:08.456Z,51.00
2023-05-14T22:55:39.516Z,50.40
2023-05-14T22:58:10.284Z,49.90
2023-05-14T23:00:40.912Z,50.90
2023-05-14T23:03:13.079Z,51.00
2023-05-14T23:05:44.109Z,51.50
2023-05-14T23:08:15.485Z,50.50
2023-05-14T23:10:46.106Z,51.40
2023-05-14T23:13:16.969Z,51.60
2023-05-14T23:15:48.090Z,50.90
2023-05-14T23:18:20.958Z,50.70
2023-05-14T23:20:51.688Z,51.50
2023-05-14T23:23:21.808Z,51.50
2023-05-14T23:25:53.198Z,50.90
2023-05-14T23:28:23.919Z,51.60
2023-05-14T23:30:54.294Z,53.70
2023-05-14T23:33:26.294Z,50.80
2023-05-14T23:35:57.223Z,50.30
2023-05-14T23:38:27.543Z,52.00
2023-05-14T23:40:57.948Z,52.80
2023-05-14T23:43:28.425Z,51.40
2023-05-14T23:45:59.173Z,52.00
2023-05-14T23:48:31.746Z,52.80
2023-05-14T23:51:01.999Z,54.10
2023-05-14T23:53:32.809Z,53.80
2023-05-14T23:56:03.290Z,53.70
2023-05-14T23:58:34.289Z,55.10
